Stations météo

réclame
Mon MeteoGroup
Kleiner Feldberg/Taunus, Allemagne (10635): Température de l'air & dewpoint: 15.06.2018 12:00:00 - 21.06.2018 12:00:00 (CEST)Kleiner Feldberg/Taunus, Allemagne (10635): Température de l'air 5cm & Température de l'air -5cm: 15.06.2018 12:00:00 - 21.06.2018 12:00:00 (CEST)Kleiner Feldberg/Taunus, Allemagne (10635): Température de l'air -20cm & Température de l'air -100cm: 15.06.2018 12:00:00 - 21.06.2018 12:00:00 (CEST)Kleiner Feldberg/Taunus, Allemagne (10635): Vitesse du vent & gusts: 15.06.2018 12:00:00 - 21.06.2018 12:00:00 (CEST)Kleiner Feldberg/Taunus, Allemagne (10635): Direction du vent: 15.06.2018 12:00:00 - 21.06.2018 12:00:00 (CEST)Kleiner Feldberg/Taunus, Allemagne (10635): visibility: 15.06.2018 12:00:00 - 21.06.2018 12:00:00 (CEST)Kleiner Feldberg/Taunus, Allemagne (10635): Ensoleillement: 15.06.2018 12:00:00 - 21.06.2018 12:00:00 (CEST)Kleiner Feldberg/Taunus, Allemagne (10635): Quantités de précipitations: 15.06.2018 12:00:00 - 21.06.2018 12:00:00 (CEST)
Date & Time tt [°C] td [°C] tt 5cm [°C] tt -5cm [°C] tt -20cm [°C] tt -100cm [°C] ff [km/h] ff [knt] fx [km/h] fx [knt] dd vv [km] sd [min] rr [mm]
21.06.2018 12:00:00 12,5 11,2 13,4 20,9 18,8 15,0 26 14 51 27 WNW 14 2 0,0
21.06.2018 11:00:00 16,1 12,2 18,0 22,8 18,4 14,9 18 10 38 20 WNW 52 33 0,0
21.06.2018 10:00:00 17,3 11,5 21,6 21,9 18,1 14,9 16 9 36 19 W 34 57 0,0
21.06.2018 09:00:00 15,7 11,4 18,1 19,5 18,1 14,9 17 9 32 17 WNW 25 45 0,0
21.06.2018 08:00:00 15,6 12,7 18,1 17,2 18,2 14,8 14 8 29 16 WNW 20 60 0,0
21.06.2018 07:00:00 14,6 12,4 14,3 15,5 18,5 14,8 13 7 23 13 WNW 19 43 0,0
21.06.2018 06:00:00 14,5 11,7 12,2 15,7 18,8 14,8 11 6 25 13 WNW 24 0 0,0
21.06.2018 05:00:00 14,9 12,0 13,3 16,1 19,1 14,7 15 8 30 16 WNW 41 0 0,0
21.06.2018 04:00:00 15,9 11,4 13,4 16,6 19,5 14,7 11 6 19 10 NW 59 0 0,0
21.06.2018 03:00:00 16,6 11,2 13,5 17,2 19,8 14,6 10 5 16 9 NW 70 0 0,0
21.06.2018 02:00:00 17,2 12,0 13,5 17,9 20,2 14,6 8 5 16 9 NW 70 0 0,0
21.06.2018 01:00:00 18,0 11,0 15,1 18,7 20,7 14,6 10 5 18 10 W 70 0 0,0
21.06.2018 00:00:00 19,0 10,7 15,7 19,3 21,1 14,5 9 5 15 8 W 70 0 0,0
20.06.2018 23:00:00 19,2 10,9 14,4 20,4 21,6 14,5 8 4 11 6 W 70 0 0,0
20.06.2018 22:00:00 19,3 11,6 13,9 22,1 22,0 14,5 6 3 12 7 WNW 60 18 0,0
20.06.2018 21:00:00 20,8 12,3 18,2 24,1 22,3 14,4 7 4 15 8 WNW 60 60 0,0
20.06.2018 20:00:00 22,2 11,9 20,6 26,7 22,4 14,4 8 5 16 9 WNW 39 60 0,0
20.06.2018 19:00:00 23,1 11,9 25,5 29,0 22,3 14,4 9 5 21 11 W 36 60 0,0
20.06.2018 18:00:00 22,9 12,5 26,1 30,5 22,0 14,4 8 4 22 12 NW 45 56 0,0
20.06.2018 17:00:00 22,9 11,5 26,7 31,5 21,5 14,4 8 4 20 11 WNW 50 56 0,0
20.06.2018 16:00:00 22,7 12,7 27,9 32,0 20,9 14,4 8 5 18 10 W 27 55 0,0
20.06.2018 15:00:00 22,0 12,0 27,7 32,4 20,1 14,4 7 4 17 9 S 35 60 0,0
20.06.2018 14:00:00 21,6 12,7 28,1 31,1 19,3 14,4 9 5 19 10 SSW 37 58 0,0
20.06.2018 13:00:00 20,1 12,5 27,0 29,2 18,5 14,4 7 4 16 9 W 57 51 0,0
20.06.2018 12:00:00 20,5 13,5 26,1 27,7 17,8 14,4 9 5 20 11 SW 32 58 0,0
20.06.2018 11:00:00 18,3 11,7 23,5 25,3 17,2 14,4 8 4 18 10 SSW 44 59 0,0
20.06.2018 10:00:00 17,9 12,1 21,8 22,3 16,8 14,4 8 4 16 9 SSE 30 58 0,0
20.06.2018 09:00:00 16,8 11,9 19,6 19,6 16,5 14,3 9 5 14 8 SSE 27 60 0,0
20.06.2018 08:00:00 16,9 12,0 18,5 16,7 16,6 14,3 5 3 10 5 ESE 32 28 0,0
20.06.2018 07:00:00 14,7 10,9 14,8 15,5 16,7 14,3 8 4 12 7 E 30 0 0,0
20.06.2018 06:00:00 14,4 11,2 13,8 15,3 16,8 14,3 7 4 10 5 ENE 32 0 0,0
20.06.2018 05:00:00 14,8 10,9 13,7 15,5 17,0 14,3 5 3 13 7 E 70 0 0,0
20.06.2018 04:00:00 14,7 10,7 13,8 15,8 17,2 14,3 9 5 15 8 NNE 54 0 0,0
20.06.2018 03:00:00 14,7 11,0 14,2 16,1 17,4 14,3 9 5 16 9 N 63 0 0,0
20.06.2018 02:00:00 14,8 10,9 14,4 16,4 17,6 14,2 9 5 16 9 N 62 0 0,0
20.06.2018 01:00:00 14,8 11,2 14,4 16,7 17,9 14,2 10 6 16 9 N 47 0 0,0
20.06.2018 00:00:00 14,5 12,7 13,7 16,9 18,2 14,2 11 6 14 8 N 44 0 0,0
19.06.2018 23:00:00 14,4 13,1 13,2 17,9 18,4 14,2 9 5 13 7 NNW 28 0 0,0
19.06.2018 22:00:00 14,8 13,7 14,7 19,0 18,6 14,2 8 5 11 6 NNW 26 0 0,0
19.06.2018 21:00:00 16,3 13,5 16,2 20,4 18,7 14,2 6 4 11 6 WNW 56 50 0,0
19.06.2018 20:00:00 16,6 13,2 16,8 21,9 18,6 14,2 5 3 13 7 NW 50 28 0,0
19.06.2018 19:00:00 17,0 13,5 19,9 22,8 18,5 14,2 7 4 16 9 NNW 51 1 0,0
19.06.2018 18:00:00 16,9 13,8 20,1 23,3 18,3 14,2 9 5 17 9 WNW 40 0 0,0
19.06.2018 17:00:00 17,3 13,7 21,6 23,5 18,1 14,2 7 4 20 11 NW 36 2 0,0
19.06.2018 16:00:00 16,9 13,3 20,0 22,9 17,9 14,2 7 4 14 8 WNW 58 0 0,0
19.06.2018 15:00:00 17,0 13,2 20,3 22,9 17,6 14,2 6 4 18 10 WNW 64 0 0,0
19.06.2018 14:00:00 16,3 12,4 19,0 23,7 17,1 14,2 8 5 16 9 WNW 70 5 0,0
19.06.2018 13:00:00 16,2 11,9 20,8 23,7 16,6 14,2 11 6 22 12 WNW 65 24 0,0
19.06.2018 12:00:00 15,1 12,5 19,7 21,3 16,2 14,2 10 5 23 12 WNW 37 3 0,0
19.06.2018 11:00:00 14,2 12,5 18,1 19,8 15,9 14,2 9 5 19 10 WNW 24 3 0,0
19.06.2018 10:00:00 14,3 11,8 18,7 18,6 15,6 14,2 8 5 19 11 WNW 26 17 0,0
19.06.2018 09:00:00 12,9 11,9 16,7 16,3 15,6 14,2 10 5 22 12 WNW 10 12 0,0
19.06.2018 08:00:00 12,0 12,0 13,1 14,8 15,6 14,2 12 6 26 14 WNW 0,3 0 0,0
19.06.2018 07:00:00 11,9 11,9 12,3 14,3 15,7 14,2 15 8 29 16 WNW 0,1 0 0,0
19.06.2018 06:00:00 11,9 11,9 11,9 14,4 15,9 14,2 16 9 29 16 WNW 0,1 0 0,0
19.06.2018 05:00:00 12,5 12,5 12,6 14,5 16,0 14,2 14 8 27 14 WNW 0,1 0 0,0
19.06.2018 04:00:00 12,7 12,7 12,8 14,5 16,1 14,2 14 8 30 16 WNW 0,1 0 0,0
19.06.2018 03:00:00 12,8 12,7 12,8 14,4 16,3 14,2 16 9 29 16 W 0,7 0 0,0
19.06.2018 02:00:00 12,6 12,4 12,1 14,4 16,6 14,1 13 7 28 15 W 7 0 0,0
19.06.2018 01:00:00 13,0 12,1 12,0 14,8 16,8 14,1 10 6 24 13 W 21 0 0,0
19.06.2018 00:00:00 13,0 11,9 11,8 15,3 17,1 14,1 11 6 21 11 WSW 26 0 0,0
18.06.2018 23:00:00 13,0 11,7 11,8 16,1 17,3 14,1 10 5 18 10 SW 32 0 0,0
18.06.2018 22:00:00 13,5 11,5 12,5 17,3 17,5 14,1 9 5 17 9 SW 40 0 0,0
18.06.2018 21:00:00 14,4 11,6 14,1 18,4 17,6 14,1 8 5 16 8 SW 45 3 0,0
18.06.2018 20:00:00 15,0 11,5 15,7 19,3 17,7 14,1 8 4 20 11 SW 58 0 0,0
18.06.2018 19:00:00 15,3 11,2 16,3 20,0 17,6 14,1 10 5 19 10 SW 60 0 0,0
18.06.2018 18:00:00 15,6 11,4 16,9 20,5 17,6 14,1 9 5 17 9 SW 60 0 0,0
18.06.2018 17:00:00 15,3 10,7 17,0 21,6 17,4 14,1 10 5 21 12 SW 62 0 0,0
18.06.2018 16:00:00 15,8 10,6 18,3 22,0 17,2 14,1 11 6 27 14 SW 53 0 0,0
18.06.2018 15:00:00 15,1 9,7 17,7 21,1 17,0 14,1 13 7 22 12 SW 59 0 0,0
18.06.2018 14:00:00 14,8 10,2 16,9 20,7 16,7 14,1 11 6 22 12 SW 68 0 0,0
18.06.2018 13:00:00 14,8 9,4 17,7 21,2 16,4 14,1 11 6 23 12 SSW 56 0 0,0
18.06.2018 12:00:00 14,5 8,7 17,1 22,1 15,9 14,1 11 6 24 13 SSW 63 28 0,0
18.06.2018 11:00:00 13,6 8,6 16,4 19,9 15,6 14,1 9 5 19 11 W 67 25 0,0
18.06.2018 10:00:00 14,4 8,7 18,8 18,3 15,3 14,1 10 5 23 12 W 42 43 0,0
18.06.2018 09:00:00 13,4 8,3 16,9 16,1 15,2 14,1 9 5 18 10 W 34 48 0,0
18.06.2018 08:00:00 11,1 7,5 11,4 13,9 15,2 14,1 6 3 14 8 WSW 37 37 0,0
18.06.2018 07:00:00 10,1 7,4 9,6 12,9 15,4 14,1 5 3 11 6 WSW 44 1 0,0
18.06.2018 06:00:00 9,9 7,5 9,1 12,7 15,6 14,1 5 3 16 9 W 52 0 0,0
18.06.2018 05:00:00 10,1 7,2 9,6 12,9 15,8 14,1 10 5 16 9 WNW 54 0 0,0
18.06.2018 04:00:00 9,9 7,1 9,5 13,1 16,1 14,1 9 5 17 9 WNW 54 0 0,0
18.06.2018 03:00:00 9,9 7,6 9,6 13,2 16,4 14,0 8 5 16 9 WNW 49 0 0,0
18.06.2018 02:00:00 9,2 7,6 7,9 13,4 16,7 14,0 10 5 20 11 WNW 38 0 0,0
18.06.2018 01:00:00 9,4 7,7 8,3 14,2 17,0 14,0 13 7 26 14 WNW 39 0 0,0
18.06.2018 00:00:00 9,8 8,1 9,1 15,3 17,3 14,0 12 7 25 13 WNW 34 0 0,0
17.06.2018 23:00:00 10,4 8,8 10,2 16,2 17,6 14,0 13 7 24 13 WNW 27 0 0,0
17.06.2018 22:00:00 11,4 10,0 11,4 17,3 17,8 14,0 9 5 22 12 WNW 25 0 0,0
17.06.2018 21:00:00 12,5 10,4 12,8 18,5 18,0 14,0 10 6 28 15 WNW 31 0 0,0
17.06.2018 20:00:00 13,9 9,7 14,7 19,6 18,1 14,0 10 5 21 11 WNW 52 0 0,0
17.06.2018 19:00:00 14,5 8,8 15,9 20,2 18,1 14,0 9 5 29 16 W 70 0 0,0
17.06.2018 18:00:00 14,8 9,4 16,4 21,4 18,1 14,0 13 7 25 14 W 46 5 0,0
17.06.2018 17:00:00 15,3 8,2 16,7 22,3 17,9 14,0 10 6 27 15 W 53 1 0,0
17.06.2018 16:00:00 17,1 8,2 21,3 23,4 17,6 14,0 14 7 29 16 WSW 44 28 0,0
17.06.2018 15:00:00 16,2 8,9 20,4 22,4 17,3 14,0 12 6 27 14 W 57 13 0,0
17.06.2018 14:00:00 16,6 8,9 20,8 22,8 17,0 14,0 10 5 26 14 W 52 16 0,0
17.06.2018 13:00:00 15,2 7,6 17,7 23,4 16,5 13,9 13 7 29 16 WSW 64 32 0,0
17.06.2018 12:00:00 14,8 7,5 18,5 22,6 16,1 13,9 12 7 22 12 W 48 34 0,0
17.06.2018 11:00:00 14,9 9,2 18,8 21,2 15,6 13,9 9 5 21 11 W 47 57 0,0
17.06.2018 10:00:00 14,0 8,8 17,9 19,0 15,2 13,9 9 5 22 12 W 43 58 0,0
17.06.2018 09:00:00 12,8 8,8 16,3 16,3 15,1 13,9 11 6 24 13 WNW 32 58 0,0
17.06.2018 08:00:00 10,3 8,5 10,6 13,4 15,2 13,9 11 6 24 13 NW 35 5 0,0
17.06.2018 07:00:00 10,8 9,6 11,2 12,7 15,5 13,9 14 7 33 18 NW 15 10 0,0
17.06.2018 06:00:00 10,1 10,0 9,6 12,3 15,7 13,8 13 7 24 13 NW 1,9 0 0,0
17.06.2018 05:00:00 10,5 10,2 9,9 13,1 16,0 13,8 13 7 26 14 WNW 4,6 0 0,0
17.06.2018 04:00:00 11,5 11,3 11,4 13,7 16,2 13,8 15 8 27 14 WNW 0,4 0 0,0
17.06.2018 03:00:00 11,7 11,1 11,3 14,2 16,5 13,8 14 7 24 13 NW 5 0 0,0
17.06.2018 02:00:00 12,6 12,6 12,6 14,3 16,8 13,7 13 7 26 14 NW 0,1 0 0,0
17.06.2018 01:00:00 12,7 12,2 11,9 14,5 17,1 13,7 13 7 24 13 NW 7 0 0,0
17.06.2018 00:00:00 13,7 12,0 12,7 15,2 17,4 13,7 13 7 27 14 WNW 30 0 0,0
16.06.2018 23:00:00 16,3 10,0 14,6 15,8 17,8 13,7 11 6 24 13 WSW 60 0 0,0
16.06.2018 22:00:00 16,0 10,0 13,7 16,9 18,2 13,7 10 5 16 9 SW 64 11 0,0
16.06.2018 21:00:00 17,0 10,8 15,4 18,6 18,4 13,7 10 6 17 9 SW 50 60 0,0
16.06.2018 20:00:00 18,3 11,0 16,9 20,7 18,5 13,7 9 5 16 9 SW 41 60 0,0
16.06.2018 19:00:00 18,3 12,3 19,5 22,0 18,5 13,7 8 5 13 7 SW 35 9 0,0
16.06.2018 18:00:00 17,8 11,6 19,6 23,4 18,4 13,7 8 5 20 11 NW 42 13 0,0
16.06.2018 17:00:00 19,1 10,9 21,2 24,6 18,1 13,7 10 5 23 13 SSW 41 17 0,0
16.06.2018 16:00:00 20,0 10,2 23,1 25,9 17,7 13,7 14 7 24 13 S 36 46 0,0
16.06.2018 15:00:00 18,5 10,9 20,5 24,6 17,3 13,7 13 7 23 12 S 22 20 0,0
16.06.2018 14:00:00 18,5 11,7 21,6 25,7 16,7 13,7 14 7 25 13 SSW 23 28 0,0
16.06.2018 13:00:00 19,0 12,4 22,2 25,4 16,0 13,7 13 7 22 12 S 20 38 0,0
16.06.2018 12:00:00 18,8 11,6 22,5 24,5 15,3 13,7 9 5 21 11 S 24 48 0,0
16.06.2018 11:00:00 18,3 11,5 21,5 22,2 14,7 13,7 10 6 16 9 S 27 60 0,0
16.06.2018 10:00:00 17,4 11,8 19,7 18,9 14,3 13,7 7 4 13 7 S 22 33 0,0
16.06.2018 09:00:00 15,9 10,4 16,8 15,8 14,1 13,7 7 4 9 5 S 50 5 0,0
16.06.2018 08:00:00 15,2 10,7 15,0 13,9 14,0 13,7 5 3 7 4 S 50 0 0,0
16.06.2018 07:00:00 14,5 9,5 13,5 12,6 14,1 13,7 5 3 6 3 SSW 55 0 0,0
16.06.2018 06:00:00 14,2 8,8 12,0 12,0 14,3 13,7 4 2 8 5 SSE 49 0 0,0
16.06.2018 05:00:00 13,3 10,6 11,0 11,7 14,4 13,7 5 3 11 6 SE 19 0 0,0
16.06.2018 04:00:00 13,1 9,7 10,5 11,7 14,7 13,7 10 5 15 8 SSE 45 0 0,0
16.06.2018 03:00:00 13,0 10,0 10,3 11,9 14,9 13,7 10 5 15 8 SSE 28 0 0,0
16.06.2018 02:00:00 12,6 10,6 10,6 12,2 15,2 13,7 11 6 16 8 SE 20 0 0,0
16.06.2018 01:00:00 12,7 10,8 10,6 12,7 15,5 13,7 12 6 15 8 SE 16 0 0,0
16.06.2018 00:00:00 13,0 11,2 11,1 13,4 15,8 13,7 12 7 16 9 SE 14 0 0,0
15.06.2018 23:00:00 13,6 11,2 11,6 14,3 16,0 13,7 9 5 11 6 SE 20 0 0,0
15.06.2018 22:00:00 13,2 11,3 10,5 15,6 16,2 13,7 9 5 14 8 SSE 17 0 0,0
15.06.2018 21:00:00 14,3 11,7 14,3 17,0 16,3 13,7 9 5 14 8 SE 17 31 0,0
15.06.2018 20:00:00 15,1 11,3 15,2 18,1 16,3 13,7 9 5 13 7 SE 21 23 0,0
15.06.2018 19:00:00 15,1 11,8 15,6 18,7 16,2 13,7 8 4 13 7 ESE 22 0 0,0
15.06.2018 18:00:00 15,8 11,9 16,9 19,4 16,1 13,7 7 4 13 7 SE 34 1 0,0
15.06.2018 17:00:00 15,4 11,2 16,7 19,7 15,9 13,7 6 4 13 7 E 41 4 0,0
15.06.2018 16:00:00 14,9 11,5 16,3 19,5 15,6 13,7 4 2 10 6 ENE 38 2 0,0
15.06.2018 15:00:00 14,2 10,7 16,0 19,6 15,3 13,7 6 3 16 9 W 29 0 0,0
15.06.2018 14:00:00 15,7 11,5 19,3 19,9 14,9 13,7 6 3 14 8 WNW 37 0 0,0
15.06.2018 13:00:00 13,8 10,9 15,3 17,7 14,7 13,7 6 3 13 7 S 21 0 0,0
15.06.2018 12:00:00 13,4 11,2 14,2 16,1 14,6 13,7 8 4 13 7 S 26 0 0,0

tt = Température de l'air
td = dewpoint
tt 5cm = Température de l'air 5cm
tt -5cm = Température de l'air -5cm
tt -20cm = Température de l'air -20cm
tt -100cm = Température de l'air -100cm
ff = Vitesse du vent
fx = gusts
dd = Direction du vent
vv = visibility
sd = Ensoleillement
rr = Quantités de précipitations

stations d'obs. à proximité